createdAt,value
2023-08-11T00:02:12.367Z,15.54
2023-08-11T00:04:38.579Z,15.49
2023-08-11T00:07:04.846Z,15.48
2023-08-11T00:09:31.046Z,15.47
2023-08-11T00:11:57.262Z,15.48
2023-08-11T00:14:23.466Z,15.45
2023-08-11T00:16:49.681Z,15.43
2023-08-11T00:19:15.881Z,15.42
2023-08-11T00:21:42.060Z,15.39
2023-08-11T00:24:08.265Z,15.32
2023-08-11T00:26:34.485Z,15.28
2023-08-11T00:29:00.661Z,15.30
2023-08-11T00:31:26.926Z,15.30
2023-08-11T00:33:53.169Z,15.29
2023-08-11T00:36:19.349Z,15.26
2023-08-11T00:38:45.579Z,15.21
2023-08-11T00:41:11.748Z,15.16
2023-08-11T00:43:37.997Z,15.14
2023-08-11T00:46:04.238Z,15.09
2023-08-11T00:48:30.436Z,15.04
2023-08-11T00:50:56.629Z,15.02
2023-08-11T00:53:22.864Z,15.02
2023-08-11T00:55:49.093Z,15.00
2023-08-11T00:58:15.311Z,14.98
2023-08-11T01:00:41.532Z,14.95
2023-08-11T01:03:07.835Z,14.99
2023-08-11T01:05:34.067Z,14.97
2023-08-11T01:08:00.304Z,14.95
2023-08-11T01:10:26.520Z,14.92
2023-08-11T01:12:52.748Z,14.92
2023-08-11T01:15:18.988Z,14.93
2023-08-11T01:17:45.213Z,14.92
2023-08-11T01:20:11.489Z,14.89
2023-08-11T01:22:37.680Z,14.84
2023-08-11T01:25:03.851Z,14.86
2023-08-11T01:27:30.053Z,14.79
2023-08-11T01:29:56.262Z,14.78
2023-08-11T01:32:22.497Z,14.74
2023-08-11T01:34:48.684Z,14.70
2023-08-11T01:37:14.905Z,14.72
2023-08-11T01:39:41.152Z,14.68
2023-08-11T01:42:07.375Z,14.68
2023-08-11T01:44:33.589Z,14.70
2023-08-11T01:46:59.897Z,14.71
2023-08-11T01:49:26.138Z,14.67
2023-08-11T01:51:52.348Z,14.65
2023-08-11T01:54:18.544Z,14.54
2023-08-11T01:56:44.736Z,14.39
2023-08-11T01:59:10.917Z,14.22
2023-08-11T02:01:37.185Z,14.14
2023-08-11T02:04:05.094Z,14.08
2023-08-11T02:06:31.352Z,14.06
2023-08-11T02:08:57.582Z,14.01
2023-08-11T02:11:25.038Z,13.99
2023-08-11T02:13:51.227Z,14.01
2023-08-11T02:16:17.537Z,13.94
2023-08-11T02:18:43.777Z,13.92
2023-08-11T02:21:09.977Z,13.89
2023-08-11T02:23:36.165Z,13.94
2023-08-11T02:26:02.450Z,13.96
2023-08-11T02:28:28.708Z,13.92
2023-08-11T02:30:54.883Z,13.92
2023-08-11T02:33:21.086Z,13.94
2023-08-11T02:35:47.313Z,13.86
2023-08-11T02:38:13.551Z,13.87
2023-08-11T02:40:39.724Z,13.87
2023-08-11T02:43:05.915Z,13.87
2023-08-11T02:45:32.171Z,13.84
2023-08-11T02:47:58.471Z,13.83
2023-08-11T02:50:24.774Z,13.83
2023-08-11T02:52:51.084Z,13.79
2023-08-11T02:55:17.305Z,13.77
2023-08-11T02:57:43.504Z,13.80
2023-08-11T03:00:09.729Z,13.78
2023-08-11T03:02:36.065Z,13.77
2023-08-11T03:05:02.353Z,13.77
2023-08-11T03:07:28.549Z,13.72
2023-08-11T03:09:54.768Z,13.69
2023-08-11T03:12:20.978Z,13.63
2023-08-11T03:14:47.172Z,13.60
2023-08-11T03:17:13.351Z,13.58
2023-08-11T03:19:39.546Z,13.55
2023-08-11T03:22:06.110Z,13.52
2023-08-11T03:24:32.664Z,13.50
2023-08-11T03:26:58.859Z,13.46
2023-08-11T03:29:25.048Z,13.53
2023-08-11T03:31:51.263Z,13.56
2023-08-11T03:34:17.511Z,13.55
2023-08-11T03:36:43.724Z,13.55
2023-08-11T03:39:09.988Z,13.56
2023-08-11T03:41:36.224Z,13.54
2023-08-11T03:44:02.427Z,13.55
2023-08-11T03:46:28.749Z,13.55
2023-08-11T03:48:55.127Z,13.59
2023-08-11T03:51:21.399Z,13.59
2023-08-11T03:53:47.586Z,13.65
2023-08-11T03:56:13.787Z,13.66
2023-08-11T03:58:40.049Z,13.56
2023-08-11T04:01:06.286Z,13.55
2023-08-11T04:03:32.693Z,13.52
2023-08-11T04:05:59.010Z,13.49
2023-08-11T04:08:25.189Z,13.45
2023-08-11T04:10:51.398Z,13.43
2023-08-11T04:13:17.654Z,13.44
2023-08-11T04:15:43.892Z,13.45
2023-08-11T04:18:10.202Z,13.43
2023-08-11T04:20:36.402Z,13.44
2023-08-11T04:23:02.581Z,13.43
2023-08-11T04:25:28.799Z,13.46
2023-08-11T04:27:55.012Z,13.46
2023-08-11T04:30:21.247Z,13.50
2023-08-11T04:32:47.518Z,13.54
2023-08-11T04:35:15.177Z,13.60
2023-08-11T04:37:41.421Z,13.64
2023-08-11T04:40:07.691Z,13.65
2023-08-11T04:42:33.905Z,13.67
2023-08-11T04:45:00.148Z,13.67
2023-08-11T04:47:26.432Z,13.69
2023-08-11T04:49:52.623Z,13.68
2023-08-11T04:52:18.835Z,13.77
2023-08-11T04:54:45.053Z,13.85
2023-08-11T04:57:11.236Z,13.86
2023-08-11T04:59:37.500Z,13.93
2023-08-11T05:02:03.803Z,13.95
2023-08-11T05:04:30.042Z,14.01
2023-08-11T05:06:56.257Z,14.05
2023-08-11T05:09:22.518Z,14.12
2023-08-11T05:11:48.750Z,14.20
2023-08-11T05:14:14.946Z,14.29
2023-08-11T05:16:41.257Z,14.38
2023-08-11T05:19:07.568Z,14.45
2023-08-11T05:21:33.786Z,14.53
2023-08-11T05:24:00.000Z,14.60
2023-08-11T05:26:26.224Z,14.67
2023-08-11T05:28:52.437Z,14.78
2023-08-11T05:31:18.784Z,14.90
2023-08-11T05:33:45.051Z,15.03
2023-08-11T05:36:11.236Z,15.13
2023-08-11T05:38:37.481Z,15.26
2023-08-11T05:41:03.723Z,15.42
2023-08-11T05:43:30.092Z,15.54
2023-08-11T05:45:56.324Z,15.68
2023-08-11T05:48:22.524Z,15.89
2023-08-11T05:50:48.730Z,16.11
2023-08-11T05:53:14.954Z,16.38
2023-08-11T05:55:41.202Z,16.66
2023-08-11T05:58:09.663Z,16.97
2023-08-11T06:00:35.958Z,17.22
2023-08-11T06:03:02.300Z,17.44
2023-08-11T06:05:28.563Z,17.64
2023-08-11T06:08:05.068Z,17.86
2023-08-11T06:10:33.836Z,18.12
2023-08-11T06:13:00.147Z,18.28
2023-08-11T06:15:26.347Z,18.37
2023-08-11T06:17:52.609Z,18.52
2023-08-11T06:20:30.057Z,18.66
2023-08-11T06:23:01.141Z,18.85
2023-08-11T06:25:27.343Z,18.99
2023-08-11T06:27:53.584Z,19.04
2023-08-11T06:30:19.799Z,19.34
2023-08-11T06:32:46.089Z,19.55
2023-08-11T06:35:12.328Z,19.69
2023-08-11T06:37:40.374Z,19.85
2023-08-11T06:40:06.573Z,19.91
2023-08-11T06:42:32.786Z,20.07
2023-08-11T06:44:59.047Z,20.30
2023-08-11T06:47:25.281Z,20.50
2023-08-11T06:49:51.524Z,20.61
2023-08-11T06:52:17.750Z,20.64
2023-08-11T06:54:43.934Z,20.73
2023-08-11T06:57:10.784Z,20.73
2023-08-11T06:59:37.412Z,20.88
2023-08-11T07:02:03.615Z,21.15
2023-08-11T07:04:29.826Z,21.23
2023-08-11T07:32:44.358Z,22.69
2023-08-11T07:35:10.597Z,22.76
2023-08-11T07:37:36.842Z,22.88
2023-08-11T07:40:03.125Z,22.99
2023-08-11T07:42:29.360Z,23.08
2023-08-11T07:44:55.618Z,23.28
2023-08-11T07:47:21.904Z,23.49
2023-08-11T07:49:48.153Z,23.54
2023-08-11T07:52:14.389Z,23.51
2023-08-11T07:54:40.748Z,23.52
2023-08-11T07:57:07.329Z,23.60
2023-08-11T07:59:33.784Z,23.73
2023-08-11T08:02:00.142Z,23.61
2023-08-11T08:04:26.391Z,23.79
2023-08-11T08:06:52.595Z,23.80
2023-08-11T08:09:18.823Z,23.83
2023-08-11T08:11:45.190Z,23.93
2023-08-11T08:14:11.561Z,24.07
2023-08-11T08:16:37.847Z,24.24
2023-08-11T08:19:04.103Z,24.32
2023-08-11T08:21:30.369Z,24.41
2023-08-11T08:23:56.601Z,24.50
2023-08-11T08:26:22.923Z,24.70
2023-08-11T08:28:49.208Z,24.85
2023-08-11T08:31:15.433Z,24.97
2023-08-11T08:33:41.647Z,25.31
2023-08-11T08:36:08.040Z,25.28
2023-08-11T08:38:34.321Z,25.31
2023-08-11T08:41:00.516Z,25.34
2023-08-11T08:43:26.760Z,25.35
2023-08-11T08:45:53.006Z,25.13
2023-08-11T08:48:19.251Z,25.16
2023-08-11T08:50:45.488Z,25.37
2023-08-11T08:53:11.733Z,25.57
2023-08-11T08:55:37.991Z,25.68
2023-08-11T08:58:04.213Z,25.79
2023-08-11T09:00:30.460Z,25.78
2023-08-11T09:02:56.792Z,25.85
2023-08-11T09:05:23.118Z,26.03
2023-08-11T09:07:49.380Z,26.06
2023-08-11T09:10:15.599Z,26.38
2023-08-11T09:12:41.856Z,26.40
2023-08-11T09:15:08.162Z,26.23
2023-08-11T09:17:34.479Z,26.43
2023-08-11T09:20:00.803Z,26.61
2023-08-11T09:22:27.056Z,26.75
2023-08-11T09:24:53.270Z,26.88
2023-08-11T09:27:19.593Z,26.97
2023-08-11T09:29:45.911Z,27.07
2023-08-11T09:32:12.266Z,26.80
2023-08-11T09:34:38.656Z,26.89
2023-08-11T09:37:04.948Z,26.80
2023-08-11T09:39:31.200Z,26.94
2023-08-11T09:41:57.471Z,26.81
2023-08-11T09:44:25.020Z,27.03
2023-08-11T09:46:51.808Z,27.47
2023-08-11T09:49:18.169Z,27.75
2023-08-11T09:51:44.417Z,27.90
2023-08-11T09:54:10.698Z,27.83
2023-08-11T09:56:36.960Z,27.76
2023-08-11T09:59:03.216Z,27.93
2023-08-11T10:01:29.629Z,28.14
2023-08-11T10:03:55.963Z,28.33
2023-08-11T10:06:22.255Z,28.53
2023-08-11T10:08:48.489Z,28.61
2023-08-11T10:11:15.673Z,28.62
2023-08-11T10:13:42.003Z,28.68
2023-08-11T10:16:08.362Z,28.60
2023-08-11T10:18:34.615Z,28.48
2023-08-11T10:21:00.853Z,28.41
2023-08-11T10:23:27.168Z,28.45
2023-08-11T10:25:53.456Z,28.38
2023-08-11T10:28:19.719Z,28.38
2023-08-11T10:30:45.967Z,28.55
2023-08-11T10:33:12.246Z,28.52
2023-08-11T10:35:38.601Z,28.51
2023-08-11T10:38:04.834Z,28.70
2023-08-11T10:40:31.060Z,28.71
2023-08-11T10:42:57.304Z,28.60
2023-08-11T10:45:23.562Z,28.67
2023-08-11T10:47:49.793Z,28.76
2023-08-11T10:50:16.076Z,28.65
2023-08-11T10:52:42.299Z,28.57
2023-08-11T10:55:08.581Z,28.56
2023-08-11T10:57:34.866Z,28.70
2023-08-11T11:00:01.136Z,28.86
2023-08-11T11:02:27.489Z,29.02
2023-08-11T11:04:53.791Z,29.44
2023-08-11T11:07:20.094Z,29.54
2023-08-11T11:09:46.316Z,29.48
2023-08-11T11:12:13.013Z,29.62
2023-08-11T11:14:39.497Z,29.55
2023-08-11T11:17:05.852Z,29.62
2023-08-11T11:19:32.176Z,29.51
2023-08-11T11:21:58.451Z,29.52
2023-08-11T11:24:25.017Z,29.64
2023-08-11T11:26:52.538Z,29.76
2023-08-11T11:29:18.824Z,29.92
2023-08-11T11:31:45.296Z,30.23
2023-08-11T11:34:11.564Z,30.08
2023-08-11T11:36:38.091Z,30.09
2023-08-11T11:39:05.989Z,30.07
2023-08-11T11:41:32.635Z,30.31
2023-08-11T11:43:58.866Z,30.35
2023-08-11T11:46:31.498Z,30.30
2023-08-11T11:48:57.884Z,30.51
2023-08-11T11:51:24.150Z,30.51
2023-08-11T11:53:50.442Z,30.70
2023-08-11T11:56:16.743Z,30.56
2023-08-11T11:58:43.058Z,30.74
2023-08-11T12:01:09.313Z,30.97
2023-08-11T12:03:35.712Z,31.30
2023-08-11T12:06:02.168Z,31.38
2023-08-11T12:08:28.516Z,30.80
2023-08-11T12:10:54.844Z,30.32
2023-08-11T12:13:21.239Z,30.37
2023-08-11T12:15:47.510Z,30.57
2023-08-11T12:18:13.800Z,30.44
2023-08-11T12:20:40.088Z,30.36
2023-08-11T12:23:06.362Z,30.38
2023-08-11T12:25:33.555Z,30.57
2023-08-11T12:27:59.829Z,30.68
2023-08-11T12:30:26.081Z,30.65
2023-08-11T12:32:52.440Z,30.59
2023-08-11T12:35:18.777Z,30.56
2023-08-11T12:37:45.087Z,30.57
2023-08-11T12:40:11.368Z,30.71
2023-08-11T12:42:37.662Z,30.78
2023-08-11T12:45:03.950Z,30.88
2023-08-11T12:47:30.270Z,31.01
2023-08-11T12:49:56.502Z,30.96
2023-08-11T12:52:22.719Z,31.05
2023-08-11T12:54:48.963Z,31.04
2023-08-11T12:57:15.252Z,30.92
2023-08-11T12:59:41.713Z,30.93
2023-08-11T13:02:08.200Z,31.15
2023-08-11T13:04:34.919Z,31.17
2023-08-11T13:07:01.229Z,31.14
2023-08-11T13:09:27.507Z,31.22
2023-08-11T13:11:53.725Z,31.44
2023-08-11T13:14:21.036Z,31.46
2023-08-11T13:16:47.323Z,31.44
2023-08-11T13:19:14.541Z,31.35
2023-08-11T13:21:40.948Z,31.28
2023-08-11T13:24:07.287Z,31.33
2023-08-11T13:26:33.537Z,31.27
2023-08-11T13:28:59.781Z,31.23
2023-08-11T13:31:26.155Z,31.14
2023-08-11T13:33:52.528Z,31.05
2023-08-11T13:36:18.792Z,31.02
2023-08-11T13:38:45.057Z,31.16
2023-08-11T13:41:11.395Z,31.26
2023-08-11T13:43:37.730Z,31.48
2023-08-11T13:46:04.023Z,31.64
2023-08-11T13:48:31.024Z,31.73
2023-08-11T13:50:57.318Z,31.87
2023-08-11T13:53:23.552Z,32.01
2023-08-11T13:55:49.770Z,32.04
2023-08-11T13:58:16.037Z,32.27
2023-08-11T14:00:42.240Z,32.24
2023-08-11T14:03:08.726Z,32.14
2023-08-11T14:05:34.976Z,32.04
2023-08-11T14:08:01.269Z,32.00
2023-08-11T14:10:27.535Z,32.06
2023-08-11T14:12:53.775Z,32.16
2023-08-11T14:15:20.075Z,32.27
2023-08-11T14:17:46.377Z,32.32
2023-08-11T14:20:12.710Z,32.29
2023-08-11T14:22:38.969Z,32.05
2023-08-11T14:25:05.235Z,31.65
2023-08-11T14:27:31.545Z,31.95
2023-08-11T14:29:57.777Z,32.32
2023-08-11T14:32:26.231Z,32.67
2023-08-11T14:34:53.036Z,32.98
2023-08-11T14:37:19.263Z,32.94
2023-08-11T14:39:45.530Z,32.88
2023-08-11T14:42:12.927Z,32.93
2023-08-11T14:44:39.192Z,32.75
2023-08-11T14:47:05.522Z,32.66
2023-08-11T14:49:31.909Z,32.44
2023-08-11T14:51:58.189Z,32.43
2023-08-11T14:54:27.451Z,32.75
2023-08-11T14:56:54.239Z,32.80
2023-08-11T14:59:20.506Z,32.84
2023-08-11T15:01:46.752Z,32.72
2023-08-11T15:04:12.986Z,32.80
2023-08-11T15:06:39.243Z,32.62
2023-08-11T15:09:05.607Z,32.47
2023-08-11T15:11:31.958Z,32.51
2023-08-11T15:13:58.302Z,32.94
2023-08-11T15:16:24.630Z,33.03
2023-08-11T15:18:50.957Z,33.01
2023-08-11T15:21:17.214Z,33.00
2023-08-11T15:23:43.427Z,33.11
2023-08-11T15:26:09.792Z,33.11
2023-08-11T15:28:36.142Z,33.20
2023-08-11T15:31:02.528Z,33.18
2023-08-11T15:33:28.855Z,32.96
2023-08-11T15:35:55.158Z,33.19
2023-08-11T15:38:22.766Z,33.11
2023-08-11T15:40:49.287Z,33.49
2023-08-11T15:43:15.591Z,33.49
2023-08-11T15:45:42.095Z,33.81
2023-08-11T15:48:08.351Z,34.16
2023-08-11T15:50:34.628Z,34.60
2023-08-11T15:53:00.859Z,34.84
2023-08-11T15:55:36.025Z,34.82
2023-08-11T15:58:02.762Z,34.93
2023-08-11T16:00:29.105Z,35.04
2023-08-11T16:02:55.457Z,34.64
2023-08-11T16:05:21.908Z,33.83
2023-08-11T16:07:48.102Z,32.88
2023-08-11T16:10:14.326Z,32.58
2023-08-11T16:12:40.574Z,32.92
2023-08-11T16:15:06.836Z,32.71
2023-08-11T16:17:33.073Z,32.84
2023-08-11T16:19:59.531Z,33.32
2023-08-11T16:22:25.799Z,33.36
2023-08-11T16:24:52.063Z,33.94
2023-08-11T16:27:18.309Z,34.14
2023-08-11T16:29:44.572Z,34.29
2023-08-11T16:32:11.257Z,33.97
2023-08-11T16:34:37.674Z,33.77
2023-08-11T16:37:03.926Z,33.87
2023-08-11T16:39:30.154Z,33.59
2023-08-11T16:41:56.392Z,33.14
2023-08-11T16:44:22.629Z,32.67
2023-08-11T16:46:48.886Z,32.22
2023-08-11T16:49:15.102Z,31.90
2023-08-11T16:51:41.340Z,31.38
2023-08-11T16:54:07.559Z,31.13
2023-08-11T16:56:33.805Z,30.74
2023-08-11T16:59:00.058Z,30.44
2023-08-11T17:01:26.493Z,30.18
2023-08-11T17:03:52.869Z,30.01
2023-08-11T17:06:19.157Z,29.85
2023-08-11T17:08:45.403Z,29.59
2023-08-11T17:11:11.640Z,29.32
2023-08-11T17:13:37.852Z,29.26
2023-08-11T17:16:04.149Z,29.12
2023-08-11T17:18:30.407Z,29.11
2023-08-11T17:20:56.700Z,29.20
2023-08-11T17:23:25.399Z,29.30
2023-08-11T17:25:51.629Z,29.20
2023-08-11T17:28:17.917Z,29.08
2023-08-11T17:30:44.159Z,28.95
2023-08-11T17:33:10.420Z,28.90
2023-08-11T17:35:36.754Z,28.76
2023-08-11T17:38:02.970Z,28.75
2023-08-11T17:40:29.227Z,28.60
2023-08-11T17:42:55.473Z,28.47
2023-08-11T17:45:21.793Z,28.37
2023-08-11T17:47:48.079Z,28.17
2023-08-11T17:50:14.583Z,28.08
2023-08-11T17:52:41.112Z,27.94
2023-08-11T17:55:07.347Z,27.78
2023-08-11T17:57:33.559Z,27.73
2023-08-11T17:59:59.902Z,27.59
2023-08-11T18:02:26.163Z,27.30
2023-08-11T18:04:52.415Z,27.25
2023-08-11T18:07:18.721Z,27.10
2023-08-11T18:09:45.000Z,26.98
2023-08-11T18:12:11.544Z,26.87
2023-08-11T18:14:37.914Z,26.73
2023-08-11T18:17:04.396Z,26.66
2023-08-11T18:19:30.784Z,26.59
2023-08-11T18:21:57.050Z,26.52
2023-08-11T18:24:23.340Z,26.38
2023-08-11T18:26:49.668Z,26.23
2023-08-11T18:29:16.023Z,26.14
2023-08-11T18:31:42.377Z,26.06
2023-08-11T18:34:08.811Z,25.98
2023-08-11T18:36:35.006Z,25.86
2023-08-11T18:39:01.305Z,25.74
2023-08-11T18:41:27.577Z,25.63
2023-08-11T18:43:53.880Z,25.49
2023-08-11T18:46:20.328Z,25.35
2023-08-11T18:48:46.599Z,25.23
2023-08-11T18:51:12.851Z,25.16
2023-08-11T18:53:39.126Z,25.04
2023-08-11T18:56:05.407Z,24.89
2023-08-11T18:58:31.649Z,24.73
2023-08-11T19:00:57.908Z,24.59
2023-08-11T19:03:24.324Z,24.42
2023-08-11T19:05:50.640Z,24.38
2023-08-11T19:08:16.847Z,24.28
2023-08-11T19:10:43.132Z,24.15
2023-08-11T19:13:09.379Z,24.04
2023-08-11T19:15:38.789Z,23.93
2023-08-11T19:18:05.044Z,23.88
2023-08-11T19:20:31.491Z,23.85
2023-08-11T19:22:57.752Z,23.78
2023-08-11T19:25:24.231Z,23.66
2023-08-11T19:27:50.644Z,23.58
2023-08-11T19:30:30.410Z,23.47
2023-08-11T19:32:56.877Z,23.39
2023-08-11T19:35:23.210Z,23.26
2023-08-11T19:37:49.444Z,23.17
2023-08-11T19:40:15.790Z,23.11
2023-08-11T19:42:42.129Z,23.03
2023-08-11T19:45:08.368Z,22.99
2023-08-11T19:47:34.943Z,22.91
2023-08-11T19:50:01.220Z,22.87
2023-08-11T19:52:27.466Z,22.81
2023-08-11T19:54:53.743Z,22.77
2023-08-11T19:57:20.158Z,22.71
2023-08-11T19:59:46.470Z,22.67
2023-08-11T20:02:12.701Z,22.64
2023-08-11T20:04:38.997Z,22.60
2023-08-11T20:07:05.272Z,22.56
2023-08-11T20:09:33.310Z,22.53
2023-08-11T20:12:04.139Z,22.45
2023-08-11T20:14:30.471Z,22.38
2023-08-11T20:16:56.695Z,22.33
2023-08-11T20:19:22.951Z,22.24
2023-08-11T20:21:49.187Z,22.20
2023-08-11T20:24:15.452Z,22.13
2023-08-11T20:26:41.820Z,22.07
2023-08-11T20:29:08.278Z,22.02
2023-08-11T20:31:34.636Z,21.94
2023-08-11T20:34:00.864Z,21.87
2023-08-11T20:36:27.174Z,21.82
2023-08-11T20:38:53.445Z,21.78
2023-08-11T20:41:20.823Z,21.77
2023-08-11T20:43:49.373Z,21.70
2023-08-11T20:46:16.068Z,21.65
2023-08-11T20:48:42.374Z,21.61
2023-08-11T20:51:08.578Z,21.55
2023-08-11T20:53:34.869Z,21.51
2023-08-11T20:56:01.101Z,21.48
2023-08-11T20:58:27.389Z,21.42
2023-08-11T21:00:53.679Z,21.41
2023-08-11T21:03:19.918Z,21.38
2023-08-11T21:05:46.211Z,21.37
2023-08-11T21:08:12.413Z,21.30
2023-08-11T21:10:38.825Z,21.25
2023-08-11T21:13:05.080Z,21.23
2023-08-11T21:15:31.419Z,21.18
2023-08-11T21:17:57.704Z,21.11
2023-08-11T21:20:23.961Z,21.10
2023-08-11T21:22:50.183Z,21.07
2023-08-11T21:25:16.433Z,21.05
2023-08-11T21:27:42.708Z,21.03
2023-08-11T21:30:08.955Z,21.01
2023-08-11T21:32:35.219Z,20.83
2023-08-11T21:35:01.527Z,20.93
2023-08-11T21:37:27.808Z,20.91
2023-08-11T21:39:54.005Z,20.85
2023-08-11T21:42:20.290Z,20.83
2023-08-11T21:44:46.561Z,20.82
2023-08-11T21:47:13.060Z,20.78
2023-08-11T21:49:40.964Z,20.77
2023-08-11T21:52:08.378Z,20.69
2023-08-11T21:54:34.583Z,20.68
2023-08-11T21:57:00.789Z,20.64
2023-08-11T21:59:28.092Z,20.61
2023-08-11T22:01:54.362Z,20.55
2023-08-11T22:04:20.624Z,20.51
2023-08-11T22:06:46.841Z,20.48
2023-08-11T22:09:13.083Z,20.45
2023-08-11T22:11:39.387Z,20.42
2023-08-11T22:14:05.684Z,20.37
2023-08-11T22:16:31.998Z,20.31
2023-08-11T22:18:58.349Z,20.33
2023-08-11T22:21:24.627Z,20.27
2023-08-11T22:23:50.880Z,20.25
2023-08-11T22:26:17.129Z,20.22
2023-08-11T22:28:43.381Z,20.20
2023-08-11T22:31:09.772Z,20.14
2023-08-11T22:33:36.108Z,20.12
2023-08-11T22:36:02.365Z,20.09
2023-08-11T22:38:28.616Z,20.10
2023-08-11T22:40:54.833Z,20.08
2023-08-11T22:43:21.063Z,20.04
2023-08-11T22:45:48.354Z,20.04
2023-08-11T22:48:14.660Z,20.02
2023-08-11T22:50:40.958Z,19.98
2023-08-11T22:53:07.185Z,19.97
2023-08-11T22:55:33.467Z,19.97
2023-08-11T22:57:59.728Z,19.98
2023-08-11T23:00:26.008Z,19.98
2023-08-11T23:02:52.300Z,19.99
2023-08-11T23:05:18.546Z,19.99
2023-08-11T23:07:44.754Z,19.96
2023-08-11T23:10:11.030Z,19.91
2023-08-11T23:12:37.279Z,19.92
2023-08-11T23:15:03.487Z,19.92
2023-08-11T23:17:29.782Z,19.88
2023-08-11T23:19:56.019Z,19.87
2023-08-11T23:22:22.304Z,19.85
2023-08-11T23:24:48.553Z,19.80
2023-08-11T23:27:14.774Z,19.81
2023-08-11T23:29:41.002Z,19.74
2023-08-11T23:32:07.225Z,19.62
2023-08-11T23:34:33.523Z,19.70
2023-08-11T23:36:59.733Z,19.71
2023-08-11T23:39:25.950Z,19.70
2023-08-11T23:41:52.139Z,19.71
2023-08-11T23:44:18.397Z,19.69
2023-08-11T23:46:44.657Z,19.68
2023-08-11T23:49:10.890Z,19.68
2023-08-11T23:51:37.181Z,19.67
2023-08-11T23:54:03.411Z,19.67
2023-08-11T23:56:29.616Z,19.67
2023-08-11T23:58:55.827Z,19.66
